Time;durP1;ratioP1;P1;durP2;ratioP2;P2;SDS_P1;SDS_P2;PMS_P1;PMS_P2;Temp;Humidity;BMP_temperature;BMP_pressure;BME280_temperature;BME280_humidity;BME280_pressure;Samples;Min_cycle;Max_cycle;Signal;HPM_P1;HPM_P2
2021/12/27 00:01:58;;;;;;;10.55;6.10;;;4.20;99.90;;;;;;7330751;32;20112;-66
2021/12/27 00:06:00;;;;;;;7.70;5.28;;;4.10;99.90;;;;;;7328248;32;20108;-65
2021/12/27 00:10:04;;;;;;;9.38;5.97;;;4.20;99.90;;;;;;7330871;32;20225;-66
2021/12/27 00:14:06;;;;;;;8.98;5.95;;;4.30;99.90;;;;;;7338691;32;20126;-65
2021/12/27 00:18:08;;;;;;;9.02;5.85;;;4.20;99.90;;;;;;7336363;32;20267;-65
2021/12/27 00:22:10;;;;;;;8.50;5.50;;;4.20;99.90;;;;;;7337941;32;20104;-65
2021/12/27 00:26:11;;;;;;;9.63;5.50;;;4.20;99.90;;;;;;7333151;32;20126;-66
2021/12/27 00:30:15;;;;;;;8.90;6.00;;;4.20;99.90;;;;;;7335232;32;20792;-66
2021/12/27 00:34:17;;;;;;;8.77;5.85;;;4.20;99.90;;;;;;7335029;32;20523;-65
2021/12/27 00:38:19;;;;;;;8.90;5.62;;;4.30;99.90;;;;;;7334069;32;20533;-66
2021/12/27 00:42:21;;;;;;;8.35;5.50;;;4.20;99.90;;;;;;7323788;32;20261;-65
2021/12/27 00:46:23;;;;;;;7.43;5.30;;;4.30;99.90;;;;;;7325715;32;20531;-65
2021/12/27 00:50:26;;;;;;;9.30;5.68;;;4.30;99.90;;;;;;7324744;32;20213;-65
2021/12/27 00:54:27;;;;;;;8.93;5.45;;;4.30;99.90;;;;;;7319833;32;20104;-65
2021/12/27 00:58:29;;;;;;;9.20;6.03;;;4.30;99.90;;;;;;7322823;32;20597;-65
2021/12/27 01:02:31;;;;;;;8.10;5.43;;;4.40;99.90;;;;;;7313756;32;20126;-66
2021/12/27 01:06:33;;;;;;;8.75;5.78;;;4.20;99.90;;;;;;7331903;32;20118;-65
2021/12/27 01:19:09;;;;;;;8.57;5.68;;;4.20;99.90;;;;;;7329142;32;20126;-66
2021/12/27 01:23:12;;;;;;;9.93;6.22;;;4.10;99.90;;;;;;7337569;32;20463;-66
2021/12/27 01:27:13;;;;;;;9.50;6.00;;;4.10;99.90;;;;;;7329577;32;20138;-66
2021/12/27 01:31:15;;;;;;;9.95;6.22;;;4.10;99.90;;;;;;7343939;32;20174;-66
2021/12/27 01:35:18;;;;;;;9.00;5.85;;;4.20;99.90;;;;;;7324803;32;20122;-66
2021/12/27 01:39:19;;;;;;;10.10;6.78;;;4.20;99.90;;;;;;7333946;32;20111;-65
2021/12/27 01:43:27;;;;;;;8.93;6.07;;;4.10;99.90;;;;;;7331899;32;20787;-66
2021/12/27 01:47:30;;;;;;;9.27;6.47;;;4.10;99.90;;;;;;7335154;32;20131;-64
2021/12/27 01:51:32;;;;;;;10.65;6.50;;;4.20;99.90;;;;;;7334230;32;20114;-65
2021/12/27 01:55:34;;;;;;;9.93;5.97;;;4.10;99.90;;;;;;7337402;32;20106;-66
2021/12/27 01:59:36;;;;;;;9.70;6.75;;;4.20;99.90;;;;;;7335843;32;20569;-65
2021/12/27 02:03:40;;;;;;;10.70;6.80;;;4.10;99.90;;;;;;7336864;32;20516;-66
2021/12/27 02:07:42;;;;;;;10.55;7.05;;;4.10;99.90;;;;;;7334421;32;20115;-66
2021/12/27 02:11:46;;;;;;;9.80;6.70;;;4.20;99.90;;;;;;7333732;32;20111;-66
2021/12/27 02:15:48;;;;;;;8.75;6.40;;;4.10;99.90;;;;;;7327959;32;20103;-66
2021/12/27 02:19:53;;;;;;;9.70;6.95;;;4.20;99.90;;;;;;7334851;32;20590;-66
2021/12/27 02:23:57;;;;;;;9.60;6.75;;;4.30;99.90;;;;;;7330841;32;20574;-66
2021/12/27 02:28:02;;;;;;;8.85;5.97;;;4.20;99.90;;;;;;7343265;32;20565;-66
2021/12/27 02:32:04;;;;;;;11.73;6.90;;;4.20;99.90;;;;;;7342768;32;20127;-66
2021/12/27 02:36:07;;;;;;;8.55;6.28;;;4.20;99.90;;;;;;7336288;32;20095;-66
2021/12/27 02:45:12;;;;;;;10.95;6.47;;;4.30;99.90;;;;;;7314997;32;20221;-66
2021/12/27 02:49:14;;;;;;;10.35;6.53;;;4.20;99.90;;;;;;7337630;32;20250;-66
2021/12/27 02:53:16;;;;;;;9.10;6.35;;;4.30;99.90;;;;;;7329112;32;20134;-65
2021/12/27 02:57:18;;;;;;;9.40;6.40;;;4.30;99.90;;;;;;7331774;32;20121;-65
2021/12/27 03:01:21;;;;;;;8.85;6.45;;;4.30;99.90;;;;;;7320472;32;20118;-66
2021/12/27 03:05:27;;;;;;;8.93;6.28;;;4.30;99.90;;;;;;7322014;32;20104;-66
2021/12/27 03:09:29;;;;;;;8.57;5.97;;;4.40;99.90;;;;;;7328242;32;20111;-65
2021/12/27 03:13:35;;;;;;;9.18;6.25;;;4.40;99.90;;;;;;7335154;32;20132;-66
2021/12/27 03:17:37;;;;;;;9.13;6.50;;;4.30;99.90;;;;;;7327911;32;20191;-65
2021/12/27 03:21:39;;;;;;;8.63;5.97;;;4.40;99.90;;;;;;7340320;32;20161;-65
2021/12/27 03:25:40;;;;;;;10.60;6.55;;;4.40;99.90;;;;;;7335542;32;20161;-66
2021/12/27 03:29:42;;;;;;;9.05;6.30;;;4.40;99.90;;;;;;7335871;32;21936;-66
2021/12/27 03:33:44;;;;;;;9.20;6.32;;;4.40;99.90;;;;;;7339852;32;20328;-66
2021/12/27 03:37:47;;;;;;;9.45;6.87;;;4.40;99.90;;;;;;7347632;32;20588;-66
2021/12/27 03:41:49;;;;;;;9.10;6.60;;;4.50;99.90;;;;;;7335905;32;20115;-66
2021/12/27 03:45:51;;;;;;;9.02;6.35;;;4.40;99.90;;;;;;7342061;32;20432;-65
2021/12/27 03:49:52;;;;;;;8.80;6.07;;;4.50;99.90;;;;;;7333178;32;20099;-66
2021/12/27 03:53:54;;;;;;;9.88;6.70;;;4.50;99.90;;;;;;7340371;32;20122;-65
2021/12/27 03:58:06;;;;;;;9.45;6.60;;;4.50;99.90;;;;;;7333969;32;20198;-66
2021/12/27 04:02:09;;;;;;;10.35;6.72;;;4.60;99.90;;;;;;7332015;32;20108;-66
2021/12/27 04:06:12;;;;;;;8.57;6.60;;;4.50;99.90;;;;;;7332513;32;20111;-66
2021/12/27 04:10:14;;;;;;;9.82;6.68;;;4.50;99.90;;;;;;7339662;32;20095;-66
2021/12/27 04:14:17;;;;;;;9.02;6.80;;;4.60;99.90;;;;;;7349388;32;20142;-66
2021/12/27 04:18:20;;;;;;;9.25;6.18;;;4.60;99.90;;;;;;7322767;32;20793;-65
2021/12/27 04:22:21;;;;;;;9.52;6.35;;;4.60;99.90;;;;;;7333041;32;20111;-66
2021/12/27 04:26:40;;;;;;;9.38;5.97;;;4.60;99.90;;;;;;7332677;32;20123;-66
2021/12/27 04:30:43;;;;;;;7.40;5.80;;;4.60;99.90;;;;;;7332280;32;20122;-65
2021/12/27 04:34:45;;;;;;;8.38;6.30;;;4.60;99.90;;;;;;7340697;32;20478;-66
2021/12/27 04:38:47;;;;;;;9.13;5.80;;;4.70;99.90;;;;;;7331248;32;20502;-66
2021/12/27 04:42:55;;;;;;;8.68;6.12;;;4.80;99.90;;;;;;7337456;32;20123;-66
2021/12/27 04:46:57;;;;;;;8.23;5.95;;;4.80;99.90;;;;;;7324330;32;20096;-66
2021/12/27 04:51:00;;;;;;;7.93;5.28;;;4.80;99.90;;;;;;7333557;32;20119;-66
2021/12/27 04:55:03;;;;;;;10.35;6.00;;;4.80;99.90;;;;;;7328611;32;20203;-66
2021/12/27 04:59:05;;;;;;;8.18;5.65;;;4.80;99.90;;;;;;7319035;32;20092;-66
2021/12/27 05:03:07;;;;;;;9.27;6.53;;;4.80;99.90;;;;;;7330743;32;20099;-66
2021/12/27 05:07:08;;;;;;;8.15;5.45;;;4.80;99.90;;;;;;7326338;32;20728;-67
2021/12/27 05:11:10;;;;;;;7.87;5.57;;;4.90;99.90;;;;;;7327138;32;20099;-67
2021/12/27 05:15:12;;;;;;;8.35;5.57;;;4.90;99.90;;;;;;7324502;32;20579;-66
2021/12/27 05:19:14;;;;;;;8.38;6.07;;;5.00;99.90;;;;;;7331468;32;20558;-66
2021/12/27 05:23:16;;;;;;;9.27;6.18;;;4.90;99.90;;;;;;7332207;32;20198;-66
2021/12/27 05:27:17;;;;;;;7.97;5.72;;;4.90;99.90;;;;;;7334948;32;20119;-66
2021/12/27 05:31:40;;;;;;;8.55;6.10;;;4.90;99.90;;;;;;7335958;32;20484;-66
2021/12/27 05:35:42;;;;;;;7.97;5.97;;;4.90;99.90;;;;;;7337055;32;20175;-66
2021/12/27 05:39:44;;;;;;;9.45;5.22;;;4.80;99.90;;;;;;7335789;32;20374;-65
2021/12/27 05:43:48;;;;;;;9.50;6.12;;;4.90;99.90;;;;;;7337607;32;20169;-66
2021/12/27 05:47:50;;;;;;;10.25;5.37;;;4.90;99.90;;;;;;7330499;32;20847;-66
2021/12/27 05:51:52;;;;;;;7.60;5.47;;;5.00;99.90;;;;;;7335063;32;20126;-66
2021/12/27 05:55:54;;;;;;;10.63;6.18;;;5.00;99.90;;;;;;7339519;32;20534;-65
2021/12/27 05:59:56;;;;;;;9.70;5.82;;;5.10;99.90;;;;;;7332667;32;20199;-66
2021/12/27 06:03:59;;;;;;;8.20;5.32;;;5.10;99.90;;;;;;7334976;32;20125;-66
2021/12/27 06:08:01;;;;;;;7.85;5.30;;;5.20;99.90;;;;;;7338388;32;20130;-66
2021/12/27 06:12:03;;;;;;;8.82;5.70;;;5.20;99.90;;;;;;7331366;32;20715;-66
2021/12/27 06:16:05;;;;;;;7.40;5.40;;;5.10;99.90;;;;;;7332014;32;20518;-65
2021/12/27 06:20:15;;;;;;;7.80;5.07;;;5.20;99.90;;;;;;7338427;32;20528;-66
2021/12/27 06:24:17;;;;;;;7.70;5.70;;;5.30;99.90;;;;;;7312121;32;20103;-66
2021/12/27 06:28:19;;;;;;;7.10;5.20;;;5.20;99.90;;;;;;7326068;32;20108;-64
2021/12/27 06:32:21;;;;;;;6.87;4.93;;;5.30;99.90;;;;;;7310306;32;20761;-65
2021/12/27 06:36:24;;;;;;;7.00;5.03;;;5.30;99.90;;;;;;7323210;32;20126;-64
2021/12/27 06:40:25;;;;;;;6.12;4.75;;;5.30;99.90;;;;;;7316008;32;20104;-65
2021/12/27 06:44:27;;;;;;;7.75;5.72;;;5.40;99.90;;;;;;7326376;32;20100;-65
2021/12/27 06:48:29;;;;;;;7.07;5.32;;;5.40;99.90;;;;;;7318644;32;20222;-65
2021/12/27 06:52:30;;;;;;;6.75;4.93;;;5.40;99.90;;;;;;7319392;32;20146;-66
2021/12/27 06:56:32;;;;;;;8.52;5.12;;;5.50;99.90;;;;;;7318951;32;20519;-66
2021/12/27 07:00:34;;;;;;;8.27;5.97;;;5.40;99.90;;;;;;7314335;32;20132;-66
2021/12/27 07:04:36;;;;;;;8.32;5.47;;;5.50;99.90;;;;;;7322020;32;20213;-66
2021/12/27 07:08:37;;;;;;;8.95;5.32;;;5.40;99.90;;;;;;7333000;32;20115;-66
2021/12/27 07:12:39;;;;;;;7.97;5.05;;;5.40;99.90;;;;;;7317314;32;20103;-65
2021/12/27 07:16:41;;;;;;;8.38;5.55;;;5.50;99.90;;;;;;7324635;32;20096;-65
2021/12/27 07:20:43;;;;;;;6.32;4.87;;;5.50;99.90;;;;;;7327194;32;20160;-65
2021/12/27 07:24:45;;;;;;;8.65;5.60;;;5.60;99.90;;;;;;7334835;32;20505;-66
2021/12/27 07:28:47;;;;;;;8.10;5.47;;;5.60;99.90;;;;;;7319362;32;20198;-66
2021/12/27 07:32:48;;;;;;;7.70;5.12;;;5.60;99.90;;;;;;7320308;32;20125;-66
2021/12/27 07:36:55;;;;;;;8.32;5.10;;;5.50;99.90;;;;;;7324461;32;20128;-66
2021/12/27 07:40:56;;;;;;;7.50;5.27;;;5.60;99.90;;;;;;7319699;32;20240;-64
2021/12/27 07:44:58;;;;;;;7.28;4.95;;;5.60;99.90;;;;;;7327161;32;20494;-64
2021/12/27 07:49:00;;;;;;;9.05;5.93;;;5.60;99.90;;;;;;7324294;32;20120;-65
2021/12/27 07:53:02;;;;;;;8.18;5.47;;;5.50;99.90;;;;;;7319252;32;20558;-65
2021/12/27 07:57:04;;;;;;;8.07;5.72;;;5.50;99.90;;;;;;7325147;32;20599;-65
2021/12/27 08:01:06;;;;;;;7.75;5.00;;;5.60;99.90;;;;;;7328811;32;20169;-65
2021/12/27 08:05:07;;;;;;;8.00;5.35;;;5.60;99.90;;;;;;7327925;32;20133;-67
2021/12/27 08:09:10;;;;;;;8.05;5.03;;;5.60;99.90;;;;;;7321194;32;20130;-63
2021/12/27 08:13:11;;;;;;;7.80;4.75;;;5.70;99.90;;;;;;7325097;32;20126;-65
2021/12/27 08:17:13;;;;;;;7.07;5.20;;;5.80;99.90;;;;;;7326911;32;20182;-64
2021/12/27 08:21:16;;;;;;;8.57;5.12;;;5.70;99.90;;;;;;7329798;32;20099;-65
2021/12/27 08:25:18;;;;;;;7.00;4.82;;;5.60;99.90;;;;;;7329222;32;20124;-65
2021/12/27 08:29:20;;;;;;;7.55;4.70;;;5.60;99.90;;;;;;7327966;32;20719;-62
2021/12/27 08:33:21;;;;;;;6.60;4.60;;;5.50;99.90;;;;;;7322494;32;20150;-64
2021/12/27 08:37:23;;;;;;;7.28;4.90;;;5.50;99.90;;;;;;7318435;32;20145;-64
2021/12/27 08:41:27;;;;;;;8.05;5.37;;;5.50;99.90;;;;;;7329135;32;20096;-64
2021/12/27 08:45:29;;;;;;;7.07;4.80;;;5.40;99.90;;;;;;7332282;32;20242;-64
2021/12/27 08:49:31;;;;;;;6.80;4.90;;;5.40;99.90;;;;;;7328497;32;20152;-64
2021/12/27 08:53:46;;;;;;;8.32;4.60;;;5.30;99.90;;;;;;7325460;32;20218;-65
2021/12/27 08:57:48;;;;;;;9.13;5.70;;;5.40;99.90;;;;;;7328558;32;20206;-64
2021/12/27 09:01:50;;;;;;;9.75;5.07;;;5.40;99.90;;;;;;7323591;32;20699;-64
2021/12/27 09:05:52;;;;;;;8.13;5.68;;;5.50;99.90;;;;;;7319414;32;20180;-65
2021/12/27 09:09:54;;;;;;;6.90;5.50;;;5.60;99.90;;;;;;7320633;32;20126;-65
2021/12/27 09:13:55;;;;;;;9.55;5.40;;;5.70;99.90;;;;;;7329605;32;20552;-65
2021/12/27 09:18:15;;;;;;;7.55;5.25;;;5.80;99.90;;;;;;7326215;32;20232;-64
2021/12/27 09:22:18;;;;;;;7.70;5.57;;;5.90;99.90;;;;;;7317910;32;20190;-65
2021/12/27 09:26:20;;;;;;;6.93;5.30;;;6.00;99.90;;;;;;7314071;32;20534;-65
2021/12/27 09:30:22;;;;;;;7.12;4.90;;;6.00;99.90;;;;;;7324988;32;20206;-65
2021/12/27 09:34:23;;;;;;;8.35;5.65;;;6.20;99.90;;;;;;7324572;32;20843;-64
2021/12/27 09:38:25;;;;;;;8.77;4.95;;;6.50;99.90;;;;;;7330250;32;20118;-65
2021/12/27 09:42:28;;;;;;;6.93;4.75;;;6.80;99.90;;;;;;7329241;32;20228;-65
2021/12/27 09:46:30;;;;;;;6.18;3.90;;;6.90;99.90;;;;;;7333450;32;20108;-64
2021/12/27 09:50:44;;;;;;;5.68;3.92;;;7.00;99.90;;;;;;7330328;32;20112;-65
2021/12/27 09:54:47;;;;;;;6.85;4.20;;;6.90;99.90;;;;;;7329637;32;20138;-66
2021/12/27 09:58:48;;;;;;;6.37;4.12;;;6.90;99.90;;;;;;7336019;32;20120;-64
2021/12/27 10:02:53;;;;;;;5.57;4.05;;;6.90;99.90;;;;;;7328549;32;20209;-64
2021/12/27 10:06:55;;;;;;;6.53;4.12;;;6.90;99.90;;;;;;7322410;32;20122;-64
2021/12/27 10:10:58;;;;;;;5.85;3.65;;;7.10;99.90;;;;;;7321639;32;20634;-63
2021/12/27 10:15:01;;;;;;;5.35;3.40;;;7.30;99.90;;;;;;7327017;32;20100;-63
2021/12/27 10:19:07;;;;;;;5.10;3.35;;;7.40;99.90;;;;;;7330470;32;20127;-63
2021/12/27 10:23:17;;;;;;;5.90;3.08;;;7.40;99.90;;;;;;7328881;32;20336;-65
2021/12/27 10:27:19;;;;;;;4.55;2.95;;;7.50;99.90;;;;;;7325699;32;20111;-64
2021/12/27 10:31:20;;;;;;;5.20;2.72;;;7.60;99.90;;;;;;7326549;32;20133;-64
2021/12/27 10:35:49;;;;;;;5.65;2.67;;;7.80;99.90;;;;;;7329478;32;20108;-63
2021/12/27 10:39:51;;;;;;;4.43;2.80;;;7.90;99.90;;;;;;7325673;32;20099;-63
2021/12/27 10:43:56;;;;;;;4.43;2.60;;;8.00;99.90;;;;;;7327970;32;20113;-63
2021/12/27 10:48:21;;;;;;;3.92;2.35;;;8.10;99.90;;;;;;7319323;32;20213;-63
2021/12/27 10:52:45;;;;;;;3.42;2.17;;;8.20;99.90;;;;;;7328065;32;20683;-63
2021/12/27 10:56:53;;;;;;;4.90;2.40;;;8.20;99.90;;;;;;7324735;32;20253;-63
2021/12/27 11:01:04;;;;;;;2.78;1.98;;;8.40;99.90;;;;;;7334186;32;20106;-63
2021/12/27 11:05:14;;;;;;;3.47;2.60;;;8.20;99.90;;;;;;7327554;32;20194;-63
2021/12/27 11:09:17;;;;;;;4.37;2.78;;;8.20;99.90;;;;;;7333483;32;20130;-64
2021/12/27 11:13:19;;;;;;;4.00;2.20;;;8.30;99.90;;;;;;7330914;32;20467;-64
2021/12/27 11:17:21;;;;;;;4.82;2.33;;;8.40;99.90;;;;;;7327857;32;20107;-64
2021/12/27 11:21:32;;;;;;;3.25;2.50;;;8.40;99.90;;;;;;7334263;32;20542;-64
2021/12/27 11:25:36;;;;;;;3.58;2.40;;;8.40;99.90;;;;;;7331120;32;20104;-64
2021/12/27 11:29:39;;;;;;;3.87;2.30;;;8.40;99.90;;;;;;7331439;32;20217;-63
2021/12/27 11:34:05;;;;;;;3.67;2.20;;;8.40;99.90;;;;;;7333591;32;20198;-63
2021/12/27 11:38:07;;;;;;;5.78;2.60;;;8.50;99.90;;;;;;7317722;32;20119;-62
2021/12/27 11:42:11;;;;;;;3.50;2.30;;;8.50;99.90;;;;;;7317058;32;20112;-64
2021/12/27 11:46:13;;;;;;;3.87;2.30;;;8.30;99.90;;;;;;7317731;32;20099;-63
2021/12/27 11:50:15;;;;;;;3.85;2.42;;;8.30;99.90;;;;;;7316967;32;20103;-64
2021/12/27 11:54:29;;;;;;;2.65;1.80;;;8.30;99.90;;;;;;7317918;32;20241;-63
2021/12/27 11:58:37;;;;;;;4.20;2.33;;;8.40;99.90;;;;;;7318000;32;20095;-65
2021/12/27 12:02:38;;;;;;;3.85;2.45;;;8.60;99.90;;;;;;7320508;32;20096;-64
2021/12/27 12:06:45;;;;;;;9.00;2.40;;;8.50;99.90;;;;;;7320421;32;20583;-64
2021/12/27 12:11:02;;;;;;;2.72;1.98;;;8.50;99.90;;;;;;7320789;32;20100;-64
2021/12/27 12:15:05;;;;;;;2.13;1.60;;;8.50;99.90;;;;;;7320686;32;20100;-64
2021/12/27 12:19:11;;;;;;;3.50;2.22;;;8.40;99.90;;;;;;7327903;32;20233;-64
2021/12/27 12:23:13;;;;;;;3.00;2.03;;;8.40;99.90;;;;;;7327075;32;20100;-64
2021/12/27 12:27:15;;;;;;;3.05;2.10;;;8.40;99.90;;;;;;7317914;32;20118;-64
2021/12/27 12:31:16;;;;;;;5.12;2.12;;;8.50;99.90;;;;;;7321621;32;20099;-64
2021/12/27 12:35:37;;;;;;;2.87;1.98;;;8.50;99.90;;;;;;7319095;32;20214;-65
2021/12/27 12:39:43;;;;;;;4.43;2.00;;;8.60;99.90;;;;;;7315502;32;20535;-63
2021/12/27 12:43:59;;;;;;;2.35;1.85;;;8.60;99.90;;;;;;7311084;32;20127;-63
2021/12/27 12:48:01;;;;;;;2.53;1.80;;;8.60;99.90;;;;;;7322141;32;20119;-63
2021/12/27 12:52:04;;;;;;;2.70;2.00;;;8.60;99.90;;;;;;7312283;32;20123;-64
2021/12/27 12:56:07;;;;;;;3.75;2.20;;;8.70;99.90;;;;;;7313102;32;20241;-63
2021/12/27 13:00:09;;;;;;;2.75;1.92;;;8.60;99.90;;;;;;7314217;32;20720;-65
2021/12/27 13:04:11;;;;;;;2.67;2.10;;;8.60;99.90;;;;;;7316176;32;20229;-64
2021/12/27 13:08:13;;;;;;;2.85;1.87;;;8.60;99.90;;;;;;7322967;32;20228;-65
2021/12/27 13:12:22;;;;;;;2.15;1.50;;;8.60;99.90;;;;;;7321111;32;20181;-64
2021/12/27 13:16:29;;;;;;;3.33;1.85;;;8.50;99.90;;;;;;7322561;32;20226;-65
2021/12/27 13:20:37;;;;;;;2.35;1.52;;;8.50;99.90;;;;;;7330854;32;20141;-66
2021/12/27 13:24:52;;;;;;;2.97;1.95;;;8.50;99.90;;;;;;7313595;32;20649;-66
2021/12/27 13:28:54;;;;;;;2.97;1.70;;;8.50;99.90;;;;;;7308141;32;20632;-64
2021/12/27 13:32:55;;;;;;;3.58;1.77;;;8.50;99.90;;;;;;7337620;32;20111;-65
2021/12/27 13:36:57;;;;;;;2.50;1.77;;;8.50;99.90;;;;;;7345151;32;20153;-65
2021/12/27 13:41:12;;;;;;;2.28;1.62;;;8.50;99.90;;;;;;7355386;32;20198;-65
2021/12/27 13:45:16;;;;;;;2.40;1.73;;;8.50;99.90;;;;;;7319835;32;20245;-65
2021/12/27 13:49:18;;;;;;;1.90;1.45;;;8.50;99.90;;;;;;7322999;32;20125;-65
2021/12/27 13:53:21;;;;;;;3.03;1.90;;;8.40;99.90;;;;;;7326563;32;20112;-65
2021/12/27 13:57:33;;;;;;;2.65;1.55;;;8.30;99.90;;;;;;7321699;32;20524;-65
2021/12/27 14:01:37;;;;;;;2.12;1.45;;;8.40;99.90;;;;;;7319669;32;20629;-64
2021/12/27 14:05:39;;;;;;;2.08;1.23;;;8.40;99.90;;;;;;7321526;32;20213;-65
2021/12/27 14:09:42;;;;;;;3.65;1.85;;;8.40;99.90;;;;;;7326510;32;20108;-66
2021/12/27 14:13:56;;;;;;;2.40;1.75;;;8.30;99.90;;;;;;7322133;32;20111;-65
2021/12/27 14:18:11;;;;;;;2.72;2.08;;;8.40;99.90;;;;;;7318900;32;20515;-66
2021/12/27 14:22:21;;;;;;;2.87;1.70;;;8.40;99.90;;;;;;7315119;32;20118;-63
2021/12/27 14:26:23;;;;;;;3.78;1.67;;;8.30;99.90;;;;;;7322128;32;20103;-64
2021/12/27 14:30:27;;;;;;;2.55;1.80;;;8.30;99.90;;;;;;7317241;32;20118;-64
2021/12/27 14:34:35;;;;;;;3.33;2.03;;;8.30;99.90;;;;;;7317868;32;20675;-65
2021/12/27 14:38:37;;;;;;;3.42;1.80;;;8.30;99.90;;;;;;7311495;32;20103;-65
2021/12/27 14:42:39;;;;;;;2.55;1.90;;;8.30;99.90;;;;;;7315364;32;20202;-64
2021/12/27 14:46:42;;;;;;;2.85;1.83;;;8.30;99.90;;;;;;7321671;32;20237;-65
2021/12/27 14:50:46;;;;;;;2.97;1.80;;;8.30;99.90;;;;;;7322132;32;20190;-64
2021/12/27 14:54:48;;;;;;;3.70;2.17;;;8.30;99.90;;;;;;7319986;32;20130;-65
2021/12/27 14:58:50;;;;;;;3.47;1.85;;;8.20;99.90;;;;;;7320952;32;20111;-64
2021/12/27 15:02:52;;;;;;;2.67;1.80;;;8.20;99.90;;;;;;7320052;32;20127;-65
2021/12/27 15:06:54;;;;;;;3.28;1.98;;;8.30;99.90;;;;;;7315959;32;20520;-65
2021/12/27 15:10:55;;;;;;;4.20;2.20;;;8.20;99.90;;;;;;7318624;32;20110;-65
2021/12/27 15:14:57;;;;;;;3.33;2.00;;;8.10;99.90;;;;;;7319557;32;20116;-65
2021/12/27 15:18:59;;;;;;;4.53;2.03;;;8.20;99.90;;;;;;7317368;32;20929;-65
2021/12/27 15:23:01;;;;;;;3.22;2.20;;;8.10;99.90;;;;;;7315023;32;20135;-64
2021/12/27 15:27:06;;;;;;;5.05;2.47;;;8.10;99.90;;;;;;7325242;32;20126;-64
2021/12/27 15:31:08;;;;;;;4.75;2.35;;;8.10;99.90;;;;;;7318356;32;20634;-64
2021/12/27 15:35:13;;;;;;;6.93;2.60;;;8.00;99.90;;;;;;7331014;32;20678;-65
2021/12/27 15:39:14;;;;;;;4.30;2.70;;;8.00;99.90;;;;;;7334661;32;20099;-65
2021/12/27 15:43:16;;;;;;;3.95;2.47;;;7.90;99.90;;;;;;7320630;32;20238;-62
2021/12/27 15:47:18;;;;;;;5.00;2.78;;;7.90;99.90;;;;;;7317664;32;20122;-62
2021/12/27 15:51:20;;;;;;;5.00;3.00;;;8.00;99.90;;;;;;7313447;32;20191;-62
2021/12/27 15:55:22;;;;;;;6.82;2.60;;;8.00;99.90;;;;;;7324010;32;22307;-63
2021/12/27 15:59:24;;;;;;;4.18;2.78;;;7.90;99.90;;;;;;7325524;32;20124;-63
2021/12/27 16:03:26;;;;;;;6.10;3.28;;;7.80;99.90;;;;;;7308389;32;20122;-63
2021/12/27 16:07:27;;;;;;;4.65;2.85;;;7.90;99.90;;;;;;7314276;32;20107;-63
2021/12/27 16:11:29;;;;;;;6.22;3.40;;;7.80;99.90;;;;;;7322045;32;20534;-63
2021/12/27 16:15:31;;;;;;;7.35;3.25;;;7.80;99.90;;;;;;7326679;32;20107;-63
2021/12/27 16:19:33;;;;;;;9.18;3.78;;;7.80;99.90;;;;;;7334743;32;20539;-63
2021/12/27 16:23:35;;;;;;;6.35;3.83;;;7.70;99.90;;;;;;7317787;32;20480;-64
2021/12/27 16:27:38;;;;;;;4.60;3.72;;;7.70;99.90;;;;;;7324455;32;20554;-63
2021/12/27 16:31:39;;;;;;;6.07;4.18;;;7.70;99.90;;;;;;7317153;32;20217;-64
2021/12/27 16:35:43;;;;;;;5.65;3.70;;;7.80;99.90;;;;;;7317870;32;20211;-64
2021/12/27 16:39:45;;;;;;;6.68;4.80;;;7.80;99.90;;;;;;7317556;32;20140;-63
2021/12/27 16:43:47;;;;;;;9.43;4.43;;;7.80;99.90;;;;;;7318987;32;20160;-63
2021/12/27 16:47:50;;;;;;;7.62;4.25;;;7.80;99.90;;;;;;7317922;32;20110;-63
2021/12/27 16:51:52;;;;;;;9.38;5.40;;;8.00;99.90;;;;;;7311920;32;20120;-63
2021/12/27 16:55:54;;;;;;;7.22;4.47;;;7.90;99.90;;;;;;7321805;32;20108;-63
2021/12/27 16:59:56;;;;;;;5.18;3.87;;;7.80;99.90;;;;;;7327965;32;20425;-63
2021/12/27 17:03:57;;;;;;;5.78;3.12;;;7.60;99.90;;;;;;7316076;32;20138;-63
2021/12/27 17:07:59;;;;;;;4.65;3.08;;;7.60;99.90;;;;;;7310027;32;20654;-62
2021/12/27 17:12:01;;;;;;;6.82;3.60;;;7.70;99.90;;;;;;7315295;32;20512;-63
2021/12/27 17:16:03;;;;;;;5.75;3.33;;;7.60;99.90;;;;;;7324473;32;20103;-63
2021/12/27 17:20:05;;;;;;;4.55;3.10;;;7.60;99.90;;;;;;7318248;32;20612;-63
2021/12/27 17:24:07;;;;;;;5.85;3.60;;;7.70;99.90;;;;;;7312010;32;20108;-63
2021/12/27 17:28:10;;;;;;;5.95;3.58;;;7.70;99.90;;;;;;7314760;32;20123;-63
2021/12/27 17:32:12;;;;;;;4.32;3.42;;;7.70;99.90;;;;;;7315911;32;20221;-63
2021/12/27 17:36:13;;;;;;;3.95;3.35;;;7.70;99.90;;;;;;7319164;32;20249;-64
2021/12/27 17:40:16;;;;;;;4.00;2.95;;;7.70;99.90;;;;;;7313879;32;20135;-63
2021/12/27 17:44:18;;;;;;;7.32;3.40;;;7.70;99.90;;;;;;7316906;32;20101;-63
2021/12/27 17:48:21;;;;;;;4.00;3.22;;;7.70;99.90;;;;;;7317790;32;20273;-62
2021/12/27 17:52:22;;;;;;;6.35;3.53;;;7.70;99.90;;;;;;7314571;32;20532;-63
2021/12/27 17:56:24;;;;;;;6.03;3.45;;;7.80;99.90;;;;;;7316510;32;20130;-63
2021/12/27 18:00:26;;;;;;;7.18;3.83;;;7.80;99.90;;;;;;7316934;32;20456;-62
2021/12/27 18:04:29;;;;;;;6.80;4.15;;;7.90;99.90;;;;;;7321404;32;20123;-62
2021/12/27 18:08:31;;;;;;;6.45;4.25;;;7.90;99.90;;;;;;7319301;32;20681;-62
2021/12/27 18:12:33;;;;;;;5.82;3.72;;;7.90;99.90;;;;;;7314967;32;20710;-62
2021/12/27 18:16:35;;;;;;;5.90;3.83;;;7.90;99.90;;;;;;7318668;32;20829;-63
2021/12/27 18:20:37;;;;;;;5.30;3.30;;;7.90;99.90;;;;;;7318969;32;20538;-63
2021/12/27 18:24:39;;;;;;;5.35;3.70;;;8.00;99.90;;;;;;7316466;32;20119;-63
2021/12/27 18:28:40;;;;;;;5.78;3.80;;;8.00;99.90;;;;;;7316001;32;20108;-62
2021/12/27 18:32:42;;;;;;;5.03;3.58;;;8.00;99.90;;;;;;7320716;32;20690;-63
2021/12/27 18:36:45;;;;;;;5.55;4.03;;;7.90;99.90;;;;;;7312454;32;20890;-63
2021/12/27 18:40:47;;;;;;;6.15;3.50;;;8.00;99.90;;;;;;7314658;32;20107;-63
2021/12/27 18:44:49;;;;;;;5.10;4.00;;;8.00;99.90;;;;;;7310941;32;20464;-63
2021/12/27 18:48:52;;;;;;;4.95;4.07;;;8.00;99.90;;;;;;7315588;32;20107;-63
2021/12/27 18:52:54;;;;;;;5.47;3.80;;;8.00;99.90;;;;;;7307520;32;20552;-63
2021/12/27 18:56:56;;;;;;;7.32;3.95;;;8.00;99.90;;;;;;7323020;32;20099;-63
2021/12/27 19:00:58;;;;;;;6.97;5.05;;;7.90;99.90;;;;;;7319263;32;20409;-63
2021/12/27 19:04:59;;;;;;;7.55;5.07;;;7.80;99.90;;;;;;7315627;32;20195;-64
2021/12/27 19:09:01;;;;;;;7.55;5.53;;;7.80;99.90;;;;;;7317983;32;20123;-63
2021/12/27 19:13:04;;;;;;;6.93;5.55;;;7.80;99.90;;;;;;7317379;32;20104;-63
2021/12/27 19:17:06;;;;;;;8.32;6.03;;;7.70;99.90;;;;;;7315900;32;20103;-62
2021/12/27 19:21:08;;;;;;;6.82;4.97;;;7.70;99.90;;;;;;7318685;32;20187;-63
2021/12/27 19:25:10;;;;;;;7.37;5.43;;;7.70;99.90;;;;;;7315562;32;20190;-63
2021/12/27 19:29:12;;;;;;;9.65;6.05;;;7.70;99.90;;;;;;7319905;32;20099;-63
2021/12/27 19:33:14;;;;;;;7.78;5.57;;;7.70;99.90;;;;;;7327601;32;20108;-62
2021/12/27 19:37:17;;;;;;;7.32;5.57;;;7.80;99.90;;;;;;7328285;32;20471;-63
2021/12/27 19:41:19;;;;;;;7.95;5.60;;;7.80;99.90;;;;;;7328477;32;20523;-62
2021/12/27 19:45:25;;;;;;;8.00;6.07;;;7.70;99.90;;;;;;7322886;32;20195;-63
2021/12/27 19:49:28;;;;;;;9.80;5.95;;;7.80;99.90;;;;;;7322051;32;20433;-63
2021/12/27 19:53:30;;;;;;;8.25;5.68;;;7.80;99.90;;;;;;7329826;32;20842;-63
2021/12/27 19:57:31;;;;;;;9.23;6.20;;;7.80;99.90;;;;;;7325868;32;20387;-64
2021/12/27 20:01:34;;;;;;;6.72;5.28;;;7.80;99.90;;;;;;7328843;32;20146;-63
2021/12/27 20:05:36;;;;;;;8.23;5.78;;;7.80;99.90;;;;;;7332137;32;20423;-63
2021/12/27 20:09:41;;;;;;;8.85;6.07;;;7.80;99.90;;;;;;7326463;32;20540;-63
2021/12/27 20:13:45;;;;;;;7.72;6.03;;;7.80;99.90;;;;;;7321811;32;20096;-64
2021/12/27 20:17:46;;;;;;;8.50;6.27;;;7.80;99.90;;;;;;7330154;32;20137;-62
2021/12/27 20:21:49;;;;;;;8.30;6.47;;;7.90;99.90;;;;;;7323876;32;20515;-69
2021/12/27 20:25:53;;;;;;;7.82;6.12;;;8.00;99.90;;;;;;7332628;32;20111;-64
2021/12/27 20:29:55;;;;;;;7.62;5.93;;;7.90;99.90;;;;;;7328520;32;20508;-64
2021/12/27 20:33:57;;;;;;;9.88;6.55;;;7.90;99.90;;;;;;7332885;32;20701;-63
2021/12/27 20:38:00;;;;;;;9.63;7.12;;;7.90;99.90;;;;;;7331138;32;20229;-64
2021/12/27 20:42:02;;;;;;;9.32;6.82;;;7.90;99.90;;;;;;7333381;32;20511;-61
2021/12/27 20:46:05;;;;;;;10.88;7.15;;;7.90;99.90;;;;;;7331664;32;20648;-61
2021/12/27 20:50:10;;;;;;;10.13;7.18;;;7.90;99.90;;;;;;7327777;32;20103;-62
2021/12/27 20:54:12;;;;;;;13.93;7.20;;;7.80;99.90;;;;;;7331246;32;20117;-63
2021/12/27 20:58:16;;;;;;;9.45;7.78;;;7.70;99.90;;;;;;7338378;32;20099;-62
2021/12/27 21:02:18;;;;;;;14.48;8.35;;;7.70;99.90;;;;;;7339423;32;20099;-62
2021/12/27 21:06:20;;;;;;;11.38;8.63;;;7.60;99.90;;;;;;7334482;32;20100;-63
2021/12/27 21:10:22;;;;;;;14.80;9.23;;;7.70;99.90;;;;;;7341980;32;20197;-63
2021/12/27 21:14:24;;;;;;;11.68;8.15;;;7.60;99.90;;;;;;7339743;32;20099;-63
2021/12/27 21:18:27;;;;;;;10.57;8.07;;;7.60;99.90;;;;;;7333062;32;20531;-63
2021/12/27 21:22:29;;;;;;;10.95;8.32;;;7.60;99.90;;;;;;7339774;32;20107;-62
2021/12/27 21:26:32;;;;;;;12.23;8.88;;;7.60;99.90;;;;;;7324359;32;20647;-62
2021/12/27 21:30:34;;;;;;;13.38;9.07;;;7.60;99.90;;;;;;7320915;32;20104;-63
2021/12/27 21:34:36;;;;;;;12.48;8.88;;;7.50;99.90;;;;;;7332309;32;20096;-63